Time;durP1;ratioP1;P1;durP2;ratioP2;P2;SDS_P1;SDS_P2;PMS_P1;PMS_P2;Temp;Humidity;BMP_temperature;BMP_pressure;BME280_temperature;BME280_humidity;BME280_pressure;Samples;Min_cycle;Max_cycle;Signal;HPM_P1;HPM_P2
2023/10/06 00:00:47;;;;;;;17.00;7.53;;;;;;;12.21;100.00;102009.72;7371054;19;20811;-53
2023/10/06 00:03:17;;;;;;;17.53;7.00;;;;;;;12.20;100.00;102023.47;7398965;19;20410;-53
2023/10/06 00:05:48;;;;;;;22.70;7.50;;;;;;;12.20;100.00;102021.75;7375685;19;20423;-51
2023/10/06 00:08:20;;;;;;;15.53;7.80;;;;;;;12.14;100.00;102019.72;7395251;19;20417;-50
2023/10/06 00:10:54;;;;;;;15.47;7.23;;;;;;;12.13;100.00;102028.28;7370356;19;20819;-50
2023/10/06 00:13:29;;;;;;;19.80;9.03;;;;;;;12.13;100.00;102033.47;7393620;19;20454;-55
2023/10/06 00:15:59;;;;;;;14.03;7.23;;;;;;;12.16;100.00;102030.16;7372404;19;20430;-52
2023/10/06 00:18:29;;;;;;;19.07;8.00;;;;;;;12.15;100.00;102044.78;7396847;19;20379;-53
2023/10/06 00:21:05;;;;;;;19.23;8.23;;;;;;;12.17;100.00;102046.56;7370222;19;20435;-56
2023/10/06 00:23:39;;;;;;;20.80;8.57;;;;;;;12.14;100.00;102032.66;7394646;19;20380;-55
2023/10/06 00:26:16;;;;;;;18.63;8.70;;;;;;;12.12;100.00;102038.53;7376010;19;20649;-51
2023/10/06 00:28:46;;;;;;;23.47;8.80;;;;;;;12.14;100.00;102026.56;7394389;19;20412;-53
2023/10/06 00:31:16;;;;;;;22.93;8.73;;;;;;;12.12;100.00;102017.84;7370321;19;20974;-51
2023/10/06 00:33:46;;;;;;;16.00;8.50;;;;;;;12.12;100.00;102011.00;7394223;19;20387;-52
2023/10/06 00:36:17;;;;;;;17.30;9.03;;;;;;;12.10;100.00;102020.34;7373550;19;20429;-55
2023/10/06 00:38:50;;;;;;;20.60;8.87;;;;;;;12.13;100.00;102019.63;7396002;19;20424;-53
2023/10/06 00:41:26;;;;;;;16.40;8.17;;;;;;;12.14;100.00;102021.41;7370117;19;20455;-53
2023/10/06 00:43:56;;;;;;;21.57;9.03;;;;;;;12.13;100.00;102019.63;7373032;19;20391;-50
2023/10/06 00:46:26;;;;;;;23.53;8.37;;;;;;;12.12;100.00;102020.44;7392638;19;20390;-50
2023/10/06 00:48:57;;;;;;;28.17;9.50;;;;;;;12.12;100.00;102017.84;7371569;19;20414;-50
2023/10/06 00:51:28;;;;;;;18.63;9.20;;;;;;;12.09;100.00;102026.31;7391329;19;20427;-54
2023/10/06 00:53:58;;;;;;;23.50;10.30;;;;;;;12.06;100.00;102027.84;7375351;19;20430;-49
2023/10/06 00:56:31;;;;;;;19.10;8.57;;;;;;;12.05;100.00;102032.13;7392122;19;20384;-51
2023/10/06 00:59:04;;;;;;;22.77;10.23;;;;;;;12.05;100.00;102032.13;7373732;19;20384;-50
2023/10/06 01:01:34;;;;;;;17.10;8.67;;;;;;;12.06;100.00;102025.25;7391668;19;20423;-53
2023/10/06 01:04:08;;;;;;;22.97;10.10;;;;;;;12.06;100.00;102023.59;7371567;19;20463;-53
2023/10/06 01:06:39;;;;;;;22.60;10.67;;;;;;;12.04;100.00;102017.41;7387569;19;20783;-54
2023/10/06 01:09:14;;;;;;;19.90;10.90;;;;;;;12.04;100.00;102008.78;7375113;19;20407;-50
2023/10/06 01:11:49;;;;;;;20.90;9.73;;;;;;;12.02;100.00;102019.00;7394313;19;21116;-50
2023/10/06 01:14:21;;;;;;;22.37;10.23;;;;;;;11.97;100.00;102012.66;7373638;19;20386;-55
2023/10/06 01:16:53;;;;;;;18.57;9.97;;;;;;;11.96;100.00;102011.81;7395302;19;20396;-50
2023/10/06 01:19:33;;;;;;;19.33;9.80;;;;;;;11.93;100.00;102016.78;7375559;19;20979;-52
2023/10/06 01:22:20;;;;;;;24.80;11.43;;;;;;;11.91;100.00;102013.22;7394668;19;20411;-49
2023/10/06 01:24:53;;;;;;;24.90;10.93;;;;;;;11.90;100.00;102019.22;7372700;19;20763;-50
2023/10/06 01:27:26;;;;;;;29.50;10.60;;;;;;;11.91;100.00;102010.66;7395684;19;20411;-54
2023/10/06 01:30:17;;;;;;;25.50;11.97;;;;;;;11.94;100.00;102018.56;7372726;19;20594;-49
2023/10/06 01:32:49;;;;;;;28.10;12.07;;;;;;;11.94;100.00;102013.38;7396448;19;20424;-53
2023/10/06 01:35:23;;;;;;;22.13;11.50;;;;;;;11.92;100.00;102020.19;7373222;19;21009;-47
2023/10/06 01:37:58;;;;;;;21.90;11.23;;;;;;;11.90;100.00;102014.03;7396060;19;20439;-49
2023/10/06 01:40:43;;;;;;;26.97;11.37;;;;;;;11.95;100.00;102010.00;7371847;19;20537;-53
2023/10/06 01:43:14;;;;;;;26.70;11.57;;;;;;;11.95;100.00;102010.00;7397648;19;20457;-52
2023/10/06 01:45:46;;;;;;;22.40;10.60;;;;;;;11.94;100.00;102015.97;7372855;19;20427;-53
2023/10/06 01:48:29;;;;;;;29.83;12.43;;;;;;;12.02;100.00;101998.31;7397465;19;20415;-55
2023/10/06 01:50:59;;;;;;;20.00;11.40;;;;;;;11.99;100.00;102000.72;7371403;19;20463;-51
2023/10/06 01:53:32;;;;;;;23.17;10.80;;;;;;;12.01;100.00;102000.00;7397567;19;20463;-55
2023/10/06 01:56:08;;;;;;;24.80;11.70;;;;;;;12.01;100.00;101987.06;7371267;19;21020;-49
2023/10/06 01:58:39;;;;;;;26.50;11.73;;;;;;;12.01;100.00;101979.28;7394336;19;20451;-51
2023/10/06 02:01:09;;;;;;;27.57;11.40;;;;;;;12.00;100.00;101981.81;7369407;19;20474;-50
2023/10/06 02:03:41;;;;;;;27.30;12.37;;;;;;;11.96;100.00;101991.13;7394008;19;20419;-53
2023/10/06 02:06:16;;;;;;;25.87;11.40;;;;;;;12.02;100.00;101986.25;7372728;19;20435;-52
2023/10/06 02:08:50;;;;;;;34.57;12.87;;;;;;;12.00;100.00;101982.69;7395458;19;20395;-53
2023/10/06 02:11:30;;;;;;;20.57;11.57;;;;;;;11.98;100.00;101984.31;7372287;19;20486;-53
2023/10/06 02:14:00;;;;;;;29.00;12.53;;;;;;;12.01;100.00;101984.47;7370355;19;20411;-54
2023/10/06 02:16:32;;;;;;;23.77;13.00;;;;;;;12.07;100.00;101977.91;7393405;19;20422;-51
2023/10/06 02:19:08;;;;;;;26.13;12.13;;;;;;;12.04;100.00;101978.63;7372298;19;20400;-49
2023/10/06 02:21:44;;;;;;;24.03;12.40;;;;;;;12.05;100.00;101984.69;7391786;19;20443;-54
2023/10/06 02:24:16;;;;;;;26.73;10.87;;;;;;;12.04;100.00;101993.25;7372951;19;20398;-50
2023/10/06 02:26:57;;;;;;;29.03;13.03;;;;;;;12.02;100.00;101991.41;7392745;19;20796;-53
2023/10/06 02:29:26;;;;;;;27.83;13.17;;;;;;;12.06;100.00;101999.41;7372080;19;20395;-52
2023/10/06 02:32:00;;;;;;;20.87;11.77;;;;;;;12.02;100.00;101995.72;7392899;19;20966;-55
2023/10/06 02:34:35;;;;;;;28.37;11.83;;;;;;;11.99;100.00;101988.69;7372007;19;20491;-54
2023/10/06 02:37:06;;;;;;;29.87;12.07;;;;;;;11.99;100.00;101978.34;7394898;19;20877;-54
2023/10/06 02:39:38;;;;;;;25.57;12.40;;;;;;;11.96;100.00;101978.19;7371037;19;20461;-54
2023/10/06 02:42:13;;;;;;;35.30;14.03;;;;;;;11.96;100.00;101970.41;7394254;19;20417;-53
2023/10/06 02:44:44;;;;;;;30.20;12.17;;;;;;;11.94;100.00;101976.31;7370590;19;20414;-49
2023/10/06 02:47:14;;;;;;;25.97;12.63;;;;;;;11.90;100.00;101970.06;7392890;19;20408;-54
2023/10/06 02:49:48;;;;;;;34.63;12.23;;;;;;;11.90;100.00;101972.66;7369566;19;21009;-54
2023/10/06 02:52:20;;;;;;;26.30;13.00;;;;;;;11.84;100.00;101975.78;7393562;19;20941;-49
2023/10/06 02:54:58;;;;;;;29.27;10.40;;;;;;;11.89;100.00;101968.28;7369255;19;20431;-51
2023/10/06 02:57:35;;;;;;;24.43;11.37;;;;;;;11.91;100.00;101961.50;7393308;19;20411;-55
2023/10/06 03:00:28;;;;;;;23.20;11.70;;;;;;;11.88;100.00;101956.16;7369084;19;20487;-49
2023/10/06 03:03:03;;;;;;;21.57;11.77;;;;;;;11.89;100.00;101964.00;7394803;19;20405;-52
2023/10/06 03:05:39;;;;;;;24.40;12.30;;;;;;;11.92;100.00;101972.72;7372310;19;20415;-49
2023/10/06 03:08:09;;;;;;;22.40;11.27;;;;;;;11.93;100.00;101984.84;7395052;19;20778;-54
2023/10/06 03:10:45;;;;;;;23.07;11.67;;;;;;;11.93;100.00;101975.41;7368232;19;21097;-48
2023/10/06 03:13:24;;;;;;;22.63;11.07;;;;;;;11.92;100.00;101978.81;7398452;19;20516;-51
2023/10/06 03:15:53;;;;;;;23.63;10.33;;;;;;;11.95;100.00;101978.97;7376113;19;20463;-52
2023/10/06 03:18:23;;;;;;;17.63;9.87;;;;;;;11.97;100.00;101986.81;7400078;19;20404;-54
2023/10/06 03:20:59;;;;;;;19.70;10.40;;;;;;;11.95;100.00;101981.53;7374735;19;20455;-52
2023/10/06 03:23:31;;;;;;;19.97;10.10;;;;;;;11.95;100.00;101994.47;7402972;19;20486;-53
2023/10/06 03:26:03;;;;;;;25.30;11.00;;;;;;;11.96;100.00;101998.88;7377588;19;20514;-52
2023/10/06 03:28:36;;;;;;;28.07;11.17;;;;;;;11.94;100.00;102000.47;7400184;19;20415;-49
2023/10/06 03:31:21;;;;;;;21.43;10.73;;;;;;;11.92;100.00;101998.59;7374916;19;20477;-50
2023/10/06 03:33:54;;;;;;;18.50;9.27;;;;;;;11.92;100.00;101998.59;7388031;19;20416;-49
2023/10/06 03:36:37;;;;;;;22.07;9.60;;;;;;;11.91;100.00;102002.88;7399165;19;20440;-53
2023/10/06 03:39:10;;;;;;;19.40;11.30;;;;;;;11.90;100.00;102006.28;7376465;19;20423;-53
2023/10/06 03:41:44;;;;;;;22.07;9.37;;;;;;;11.93;100.00;101998.69;7396778;19;20447;-54
2023/10/06 03:44:25;;;;;;;20.90;10.03;;;;;;;11.94;100.00;102008.22;7378301;19;20912;-48
2023/10/06 03:46:55;;;;;;;17.93;8.43;;;;;;;11.94;100.00;102015.97;7396791;19;20399;-49
2023/10/06 03:49:26;;;;;;;21.63;10.37;;;;;;;11.97;100.00;102008.41;7375943;19;20447;-49
2023/10/06 03:51:57;;;;;;;21.30;10.03;;;;;;;12.02;100.00;102019.88;7396479;19;20408;-52
2023/10/06 03:54:27;;;;;;;21.97;9.83;;;;;;;12.02;100.00;102019.88;7378163;19;20386;-50
2023/10/06 03:56:56;;;;;;;16.23;9.47;;;;;;;12.00;100.00;102018.91;7396463;19;20966;-52
2023/10/06 03:59:30;;;;;;;29.57;11.90;;;;;;;11.98;100.00;102028.28;7377612;19;20406;-48
2023/10/06 04:02:02;;;;;;;20.27;11.23;;;;;;;12.01;100.00;102031.03;7399614;19;20483;-51
2023/10/06 04:04:32;;;;;;;24.37;11.57;;;;;;;12.00;100.00;102044.78;7375846;19;20443;-52
2023/10/06 04:07:02;;;;;;;23.67;10.87;;;;;;;12.02;100.00;102037.09;7397064;19;20418;-49
2023/10/06 04:09:31;;;;;;;26.50;11.73;;;;;;;11.98;100.00;102041.22;7377663;19;20429;-51
2023/10/06 04:12:04;;;;;;;25.13;10.20;;;;;;;11.94;100.00;102041.84;7397264;19;20408;-53
2023/10/06 04:14:36;;;;;;;22.60;11.40;;;;;;;11.98;100.00;102041.22;7376965;19;20822;-50
2023/10/06 04:17:05;;;;;;;24.33;10.90;;;;;;;11.98;100.00;102030.88;7397789;19;20399;-50
2023/10/06 04:19:35;;;;;;;24.27;12.13;;;;;;;12.00;100.00;102023.22;7373194;19;20415;-50
2023/10/06 04:22:07;;;;;;;28.80;11.23;;;;;;;12.02;100.00;102011.25;7398268;19;20399;-53
2023/10/06 04:24:37;;;;;;;23.27;11.83;;;;;;;12.03;100.00;102007.84;7373907;19;20454;-53
2023/10/06 04:27:07;;;;;;;20.20;10.87;;;;;;;12.05;100.00;102010.56;7396497;19;20436;-54
2023/10/06 04:29:40;;;;;;;25.00;11.83;;;;;;;12.02;100.00;101999.19;7373353;19;20415;-51
2023/10/06 04:32:13;;;;;;;28.77;12.97;;;;;;;12.02;100.00;101994.00;7398875;19;20420;-48
2023/10/06 04:34:43;;;;;;;26.37;13.07;;;;;;;12.02;100.00;101991.41;7373885;19;20427;-50
2023/10/06 04:37:16;;;;;;;28.33;13.10;;;;;;;12.02;100.00;101975.03;7396831;19;20921;-53
2023/10/06 04:39:46;;;;;;;24.83;13.30;;;;;;;12.04;100.00;101986.38;7374469;19;20415;-53
2023/10/06 04:42:18;;;;;;;26.30;12.63;;;;;;;12.04;100.00;101985.50;7396264;19;21274;-53
2023/10/06 04:44:54;;;;;;;22.43;9.87;;;;;;;12.06;100.00;101991.63;7375300;19;20430;-51
2023/10/06 04:47:24;;;;;;;29.73;12.20;;;;;;;12.06;100.00;101986.47;7397313;19;20435;-51
2023/10/06 04:49:54;;;;;;;23.30;12.47;;;;;;;12.09;100.00;101984.03;7372461;19;20491;-50
2023/10/06 04:52:24;;;;;;;22.23;11.57;;;;;;;12.08;100.00;101983.16;7399861;19;20408;-52
2023/10/06 04:54:54;;;;;;;23.00;12.57;;;;;;;12.06;100.00;101989.97;7375060;19;20766;-52
2023/10/06 04:57:24;;;;;;;24.57;12.23;;;;;;;12.04;100.00;101993.25;7397199;19;20487;-52
2023/10/06 04:59:58;;;;;;;28.47;13.23;;;;;;;12.02;100.00;101987.97;7373555;19;20483;-51
2023/10/06 05:02:28;;;;;;;20.80;11.50;;;;;;;11.99;100.00;101993.84;7396508;19;20428;-54
2023/10/06 05:04:58;;;;;;;26.73;11.97;;;;;;;12.06;100.00;101989.06;7373611;19;20454;-49
2023/10/06 05:07:28;;;;;;;22.60;11.50;;;;;;;12.04;100.00;101994.13;7398592;19;20425;-52
2023/10/06 05:09:58;;;;;;;20.17;11.90;;;;;;;12.07;100.00;101989.16;7371525;19;20499;-52
2023/10/06 05:12:27;;;;;;;17.50;9.23;;;;;;;12.01;100.00;101978.44;7396175;19;20419;-53
2023/10/06 05:15:00;;;;;;;26.90;12.00;;;;;;;11.96;100.00;101973.00;7373470;19;20515;-55
2023/10/06 05:17:29;;;;;;;23.20;11.67;;;;;;;12.01;100.00;101979.28;7395575;19;20412;-52
2023/10/06 05:19:59;;;;;;;24.80;13.43;;;;;;;11.98;100.00;101989.50;7371638;19;20459;-50
2023/10/06 05:22:29;;;;;;;27.33;10.77;;;;;;;11.98;100.00;101976.56;7398357;19;20434;-52
2023/10/06 05:25:01;;;;;;;23.50;9.37;;;;;;;11.96;100.00;101973.00;7372706;19;21026;-49
2023/10/06 05:27:34;;;;;;;25.57;8.97;;;;;;;12.01;100.00;101958.59;7396873;19;20412;-51
2023/10/06 05:30:07;;;;;;;19.83;10.27;;;;;;;12.00;100.00;101951.66;7371875;19;20459;-52
2023/10/06 05:32:41;;;;;;;21.40;11.03;;;;;;;11.92;100.00;101947.78;7394043;19;20407;-51
2023/10/06 05:35:13;;;;;;;19.50;10.10;;;;;;;11.89;100.00;101938.13;7371388;19;20797;-52
2023/10/06 05:37:46;;;;;;;20.23;9.13;;;;;;;11.86;100.00;101945.72;7394637;19;20396;-50
2023/10/06 05:40:16;;;;;;;16.73;8.40;;;;;;;11.86;100.00;101939.66;7372184;19;20470;-53
2023/10/06 05:42:49;;;;;;;20.90;8.63;;;;;;;11.84;100.00;101928.34;7394067;19;20952;-52
2023/10/06 05:45:21;;;;;;;23.03;8.97;;;;;;;11.87;100.00;101918.16;7371577;19;20505;-50
2023/10/06 05:47:54;;;;;;;16.30;8.87;;;;;;;11.88;100.00;101910.50;7396462;19;20847;-51
2023/10/06 05:50:29;;;;;;;15.57;8.47;;;;;;;11.87;100.00;101907.81;7372027;19;20465;-53
2023/10/06 05:53:03;;;;;;;18.67;8.60;;;;;;;11.88;100.00;101915.69;7394541;19;20474;-51
2023/10/06 05:55:34;;;;;;;17.17;9.23;;;;;;;11.88;100.00;101925.13;7373332;19;20443;-53
2023/10/06 05:58:09;;;;;;;17.20;7.93;;;;;;;11.94;100.00;101907.34;7394963;19;20487;-51
2023/10/06 06:00:50;;;;;;;19.47;9.70;;;;;;;11.96;100.00;101913.53;7370707;19;20457;-54
2023/10/06 06:03:20;;;;;;;21.83;9.00;;;;;;;11.98;100.00;101927.41;7397384;19;20422;-47
2023/10/06 06:05:52;;;;;;;24.13;8.97;;;;;;;11.99;100.00;101913.66;7368993;19;21009;-48
2023/10/06 06:08:22;;;;;;;18.37;8.40;;;;;;;12.01;100.00;101908.59;7392608;19;20483;-55
2023/10/06 06:10:52;;;;;;;15.20;8.17;;;;;;;12.00;100.00;101914.56;7364228;19;20454;-55
2023/10/06 06:13:21;;;;;;;19.33;9.43;;;;;;;11.97;100.00;101911.81;7396738;19;20416;-48
2023/10/06 06:15:54;;;;;;;20.10;7.93;;;;;;;11.97;100.00;101909.22;7371407;19;20443;-52
2023/10/06 06:18:27;;;;;;;17.53;7.80;;;;;;;11.90;100.00;101897.66;7394500;19;20931;-49
2023/10/06 06:20:58;;;;;;;14.23;7.73;;;;;;;11.93;100.00;101896.91;7369174;19;20450;-53
2023/10/06 06:23:28;;;;;;;13.80;7.60;;;;;;;11.89;100.00;101888.09;7394837;19;20404;-49
2023/10/06 06:25:57;;;;;;;16.67;8.40;;;;;;;11.92;100.00;101893.47;7369073;19;20969;-50
2023/10/06 06:28:27;;;;;;;15.30;7.23;;;;;;;11.87;100.00;101893.22;7394236;19;20420;-55
2023/10/06 06:31:04;;;;;;;14.70;7.40;;;;;;;11.87;100.00;101894.91;7369703;19;20514;-55
2023/10/06 06:33:35;;;;;;;21.93;9.63;;;;;;;11.81;100.00;101902.31;7395897;19;20429;-48
2023/10/06 06:36:05;;;;;;;17.40;7.20;;;;;;;11.82;100.00;101891.16;7369066;19;20447;-46
2023/10/06 06:38:39;;;;;;;21.03;8.10;;;;;;;11.86;100.00;101885.38;7395641;19;20404;-47
2023/10/06 06:41:09;;;;;;;14.47;7.50;;;;;;;11.81;100.00;101868.72;7369463;19;20994;-48
2023/10/06 06:43:43;;;;;;;40.63;14.87;;;;;;;11.82;100.00;101873.06;7394176;19;20424;-51
2023/10/06 06:46:16;;;;;;;22.77;10.57;;;;;;;11.84;100.00;101864.59;7370225;19;20426;-54
2023/10/06 06:48:47;;;;;;;22.43;10.03;;;;;;;11.87;100.00;101871.63;7394207;19;20422;-54
2023/10/06 06:51:16;;;;;;;20.83;9.97;;;;;;;11.89;100.00;101875.16;7369880;19;20451;-50
2023/10/06 06:53:47;;;;;;;19.57;8.20;;;;;;;11.95;100.00;101869.47;7389664;19;20395;-51
2023/10/06 06:56:17;;;;;;;20.33;7.00;;;;;;;11.93;100.00;101868.47;7373191;19;20454;-54
2023/10/06 06:58:48;;;;;;;22.30;9.43;;;;;;;11.97;100.00;101873.91;7391966;19;20967;-51
2023/10/06 07:01:20;;;;;;;16.10;7.40;;;;;;;11.99;100.00;101876.56;7368964;19;20451;-57
2023/10/06 07:03:50;;;;;;;18.97;8.23;;;;;;;11.99;100.00;101882.63;7391845;19;20798;-49
2023/10/06 07:06:21;;;;;;;27.90;12.07;;;;;;;12.00;100.00;101897.34;7393723;19;20426;-54
2023/10/06 07:08:50;;;;;;;16.53;7.40;;;;;;;12.02;100.00;101895.72;7388208;19;21032;-48
2023/10/06 07:11:20;;;;;;;12.40;6.10;;;;;;;12.04;100.00;101905.31;7390204;19;20470;-53
2023/10/06 07:13:49;;;;;;;25.80;10.80;;;;;;;12.08;100.00;101902.06;7391169;19;20408;-48
2023/10/06 07:16:24;;;;;;;21.93;7.67;;;;;;;12.09;100.00;101898.66;7371365;19;20438;-47
2023/10/06 07:18:54;;;;;;;20.60;9.13;;;;;;;12.02;100.00;101895.72;7370259;19;20428;-50
2023/10/06 07:21:25;;;;;;;18.97;8.90;;;;;;;11.94;100.00;101894.41;7391451;19;20866;-50
2023/10/06 07:23:56;;;;;;;15.27;6.00;;;;;;;11.89;100.00;101895.84;7370047;19;20785;-51
2023/10/06 07:26:26;;;;;;;12.70;5.50;;;;;;;11.84;100.00;101876.66;7392490;19;20414;-54
2023/10/06 07:28:56;;;;;;;13.53;7.50;;;;;;;11.82;100.00;101865.31;7371431;19;20400;-51
2023/10/06 07:31:28;;;;;;;30.50;12.13;;;;;;;11.84;100.00;101858.53;7391139;19;20446;-52
2023/10/06 07:33:59;;;;;;;28.97;11.73;;;;;;;11.82;100.00;101854.97;7366474;19;20416;-53
2023/10/06 07:36:28;;;;;;;16.43;8.07;;;;;;;11.84;100.00;101850.78;7383426;19;20431;-51
2023/10/06 07:38:58;;;;;;;14.60;7.10;;;;;;;11.81;100.00;101850.59;7360739;19;20483;-50
2023/10/06 07:41:28;;;;;;;15.60;6.97;;;;;;;11.82;100.00;101853.28;7386529;19;20499;-50
2023/10/06 07:43:58;;;;;;;19.00;7.43;;;;;;;11.80;100.00;101849.69;7367593;19;20938;-48
2023/10/06 07:46:31;;;;;;;14.47;7.17;;;;;;;11.85;100.00;101842.22;7388945;19;20411;-51
2023/10/06 07:49:01;;;;;;;19.43;6.10;;;;;;;11.86;100.00;101833.66;7366318;19;20415;-49
2023/10/06 07:51:33;;;;;;;12.10;5.60;;;;;;;11.91;100.00;101831.31;7387432;19;20986;-50
2023/10/06 07:54:03;;;;;;;13.30;6.73;;;;;;;11.96;100.00;101825.59;7366305;19;20474;-51
2023/10/06 07:56:34;;;;;;;15.70;6.73;;;;;;;11.97;100.00;101839.38;7387835;19;20419;-48
2023/10/06 07:59:05;;;;;;;17.33;6.27;;;;;;;12.02;100.00;101840.53;7371173;19;20415;-47
2023/10/06 08:01:38;;;;;;;17.43;7.20;;;;;;;12.01;100.00;101844.78;7394758;19;20483;-48
2023/10/06 08:04:08;;;;;;;19.47;6.73;;;;;;;12.05;100.00;101834.66;7375253;19;20966;-52
2023/10/06 08:06:38;;;;;;;15.47;6.47;;;;;;;12.10;100.00;101848.75;7396144;19;20425;-49
2023/10/06 08:09:10;;;;;;;19.63;6.17;;;;;;;12.17;100.00;101835.31;7371204;19;20491;-49
2023/10/06 08:11:43;;;;;;;17.70;7.50;;;;;;;12.25;100.00;101844.34;7394091;19;20435;-48
2023/10/06 08:14:13;;;;;;;19.80;6.30;;;;;;;12.31;100.00;101848.06;7375112;19;20848;-48
2023/10/06 08:16:45;;;;;;;14.87;6.80;;;;;;;12.33;100.00;101867.16;7393305;19;20399;-50
2023/10/06 08:19:15;;;;;;;23.87;8.10;;;;;;;12.37;100.00;101879.44;7360221;19;20391;-50
2023/10/06 08:21:45;;;;;;;11.03;4.90;;;;;;;12.38;100.00;101886.41;7385475;19;20506;-53
2023/10/06 08:24:15;;;;;;;12.87;6.57;;;;;;;12.40;100.00;101895.13;7373323;19;20399;-49
2023/10/06 08:26:45;;;;;;;44.03;19.07;;;;;;;12.42;100.00;101903.88;7394139;19;20399;-51
2023/10/06 08:29:15;;;;;;;31.43;12.03;;;;;;;12.42;100.00;101886.63;7374267;19;20456;-54
2023/10/06 08:31:49;;;;;;;17.37;7.37;;;;;;;12.36;100.00;101901.84;7395412;19;20554;-52
2023/10/06 08:34:21;;;;;;;30.10;13.27;;;;;;;12.40;100.00;101896.03;7376864;19;20432;-49
2023/10/06 08:36:51;;;;;;;37.77;15.73;;;;;;;12.37;100.00;101897.56;7395489;19;20503;-50
2023/10/06 08:39:21;;;;;;;20.43;6.97;;;;;;;12.36;100.00;101885.44;7373681;19;20440;-50
2023/10/06 08:41:52;;;;;;;16.53;7.87;;;;;;;12.38;100.00;101876.94;7395137;19;20454;-49
2023/10/06 08:44:22;;;;;;;19.03;7.87;;;;;;;12.42;100.00;101867.66;7374561;19;20478;-52
2023/10/06 08:46:56;;;;;;;12.97;6.60;;;;;;;12.43;100.00;101872.00;7397460;19;20407;-52
2023/10/06 08:49:35;;;;;;;18.60;7.33;;;;;;;12.46;100.00;101882.50;7370650;19;20423;-49
2023/10/06 08:52:06;;;;;;;11.97;6.07;;;;;;;12.49;100.00;101884.38;7395660;19;20412;-50
2023/10/06 08:54:36;;;;;;;26.77;10.33;;;;;;;12.53;100.00;101874.28;7376301;19;20904;-53
2023/10/06 08:57:06;;;;;;;22.70;10.27;;;;;;;12.55;100.00;101875.22;7397890;19;20480;-50
2023/10/06 08:59:36;;;;;;;15.73;7.90;;;;;;;12.55;100.00;101864.88;7374564;19;20998;-50
2023/10/06 09:02:08;;;;;;;16.53;8.37;;;;;;;12.54;100.00;101868.28;7394850;19;21290;-53
2023/10/06 09:04:39;;;;;;;16.63;7.30;;;;;;;12.53;100.00;101861.31;7374257;19;20419;-50
2023/10/06 09:07:12;;;;;;;36.63;15.60;;;;;;;12.56;100.00;101869.22;7395075;19;20419;-53
2023/10/06 09:09:43;;;;;;;37.10;12.90;;;;;;;12.55;100.00;101867.47;7369992;19;21047;-54
2023/10/06 09:12:25;;;;;;;21.30;10.90;;;;;;;12.50;100.00;101861.16;7396953;19;20813;-51
2023/10/06 09:14:56;;;;;;;37.57;14.03;;;;;;;12.47;100.00;101847.16;7371034;19;20432;-51
2023/10/06 09:17:36;;;;;;;23.53;11.17;;;;;;;12.45;100.00;101847.09;7396088;19;20414;-54
2023/10/06 09:20:07;;;;;;;12.77;6.87;;;;;;;12.48;100.00;101841.19;7370603;19;20539;-51
2023/10/06 09:22:52;;;;;;;22.70;10.40;;;;;;;12.49;100.00;101854.22;7393762;19;20407;-48
2023/10/06 09:25:22;;;;;;;19.27;8.57;;;;;;;12.50;100.00;101853.38;7372720;19;20423;-49
2023/10/06 09:28:04;;;;;;;25.33;9.07;;;;;;;12.53;100.00;101843.22;7396512;19;20833;-48
2023/10/06 09:30:50;;;;;;;22.83;8.57;;;;;;;12.62;100.00;101844.47;7368079;19;20526;-50
2023/10/06 09:33:25;;;;;;;26.87;10.60;;;;;;;12.67;100.00;101838.72;7394596;19;20515;-51
2023/10/06 09:36:07;;;;;;;12.93;6.20;;;;;;;12.71;100.00;101842.34;7371991;19;20419;-51
2023/10/06 09:38:37;;;;;;;17.13;6.73;;;;;;;12.75;100.00;101839.09;7398003;19;20415;-49
2023/10/06 09:41:09;;;;;;;23.63;10.50;;;;;;;12.81;100.00;101839.41;7370424;19;20487;-50
2023/10/06 09:43:40;;;;;;;15.83;6.67;;;;;;;12.83;100.00;101842.94;7396189;19;20402;-48
2023/10/06 09:46:11;;;;;;;15.40;6.87;;;;;;;12.85;100.00;101844.72;7372795;19;20966;-48
2023/10/06 09:48:45;;;;;;;13.33;6.33;;;;;;;12.87;100.00;101850.88;7392665;19;20403;-51
2023/10/06 09:51:17;;;;;;;12.37;5.57;;;;;;;12.88;100.00;101850.06;7371012;19;20482;-53
2023/10/06 09:53:47;;;;;;;19.73;6.90;;;;;;;12.88;100.00;101831.94;7395621;19;20963;-54
2023/10/06 09:56:17;;;;;;;24.90;8.33;;;;;;;12.88;100.00;101829.34;7369135;19;20831;-53
2023/10/06 09:58:51;;;;;;;18.50;7.10;;;;;;;12.82;100.00;101817.88;7391017;19;20403;-51
2023/10/06 10:01:24;;;;;;;12.40;5.80;;;;;;;12.79;100.00;101828.09;7364991;19;21228;-54
2023/10/06 10:03:58;;;;;;;19.10;7.30;;;;;;;12.73;100.00;101819.13;7371867;19;20771;-49
2023/10/06 10:06:30;;;;;;;15.57;6.23;;;;;;;12.71;100.00;101802.63;7393479;19;20413;-48
2023/10/06 10:08:59;;;;;;;11.60;5.80;;;;;;;12.70;100.00;101801.72;7371133;19;20399;-51
2023/10/06 10:11:39;;;;;;;15.80;7.10;;;;;;;12.74;100.00;101802.75;7392480;19;20458;-51
2023/10/06 10:14:20;;;;;;;17.13;6.07;;;;;;;12.67;100.00;101792.09;7371475;19;20827;-54
2023/10/06 10:17:06;;;;;;;11.70;6.80;;;;;;;12.68;100.00;101777.47;7393999;19;20818;-49
2023/10/06 10:19:39;;;;;;;15.97;7.67;;;;;;;12.57;100.00;101779.53;7371454;19;20829;-51
2023/10/06 10:22:13;;;;;;;13.70;5.80;;;;;;;12.51;100.00;101779.22;7391749;19;20449;-51
2023/10/06 10:24:43;;;;;;;22.63;8.23;;;;;;;12.47;100.00;101779.88;7370171;19;20423;-50
2023/10/06 10:27:17;;;;;;;12.57;6.67;;;;;;;12.40;100.00;101776.06;7393370;19;20379;-52
2023/10/06 10:29:47;;;;;;;11.80;7.40;;;;;;;12.40;100.00;101771.78;7369017;19;20423;-51
2023/10/06 10:32:22;;;;;;;12.40;7.73;;;;;;;12.37;100.00;101755.22;7393352;19;20470;-50
2023/10/06 10:35:13;;;;;;;14.87;7.13;;;;;;;12.37;100.00;101719.00;7366890;19;20781;-52
2023/10/06 10:37:59;;;;;;;38.73;15.97;;;;;;;12.32;100.00;101715.28;7392104;19;20408;-52
2023/10/06 10:40:47;;;;;;;20.33;9.10;;;;;;;12.33;100.00;101686.91;7368945;19;20470;-50
2023/10/06 10:43:17;;;;;;;15.97;8.10;;;;;;;12.31;100.00;101666.94;7392731;19;20436;-51
2023/10/06 10:45:50;;;;;;;25.37;11.43;;;;;;;12.27;100.00;101665.91;7370268;19;20433;-51
2023/10/06 10:48:22;;;;;;;11.93;7.93;;;;;;;12.28;100.00;101657.31;7394688;19;20957;-51
2023/10/06 10:51:05;;;;;;;13.63;7.67;;;;;;;12.29;100.00;101644.47;7369098;19;20462;-52
2023/10/06 10:53:37;;;;;;;22.03;11.90;;;;;;;12.27;100.00;101630.56;7394555;19;20405;-54
2023/10/06 10:56:13;;;;;;;16.13;8.97;;;;;;;12.28;100.00;101632.34;7370320;19;20446;-49
2023/10/06 10:58:56;;;;;;;25.23;12.20;;;;;;;12.29;100.00;101623.78;7392766;19;20399;-51
2023/10/06 11:01:29;;;;;;;19.83;8.20;;;;;;;12.28;100.00;101606.47;7369825;19;20479;-49
2023/10/06 11:04:34;;;;;;;27.60;10.33;;;;;;;12.30;100.00;101616.88;7371090;19;20399;-52
2023/10/06 11:07:18;;;;;;;20.57;9.40;;;;;;;12.34;100.00;101599.81;7390045;19;20427;-50
2023/10/06 11:09:52;;;;;;;16.20;9.03;;;;;;;12.31;100.00;101591.91;7367546;19;20425;-52
2023/10/06 11:12:28;;;;;;;21.00;10.40;;;;;;;12.32;100.00;101602.34;7393177;19;20481;-52
2023/10/06 11:15:03;;;;;;;17.33;8.40;;;;;;;12.38;100.00;101589.69;7367664;19;20427;-54
2023/10/06 11:17:34;;;;;;;12.40;7.53;;;;;;;12.41;100.00;101566.53;7389501;19;20399;-52
2023/10/06 11:20:12;;;;;;;21.90;9.23;;;;;;;12.44;100.00;101560.63;7369162;19;20546;-52
2023/10/06 11:22:54;;;;;;;27.73;10.37;;;;;;;12.51;100.00;101557.50;7392283;19;20391;-49
2023/10/06 11:25:27;;;;;;;22.67;10.50;;;;;;;12.52;100.00;101548.91;7369265;19;20430;-48
2023/10/06 11:27:58;;;;;;;24.00;13.00;;;;;;;12.59;100.00;101551.78;7391304;19;20434;-53
2023/10/06 11:30:29;;;;;;;18.87;10.30;;;;;;;12.54;100.00;101546.41;7360017;19;20538;-50